Statendam — PHSG — position and weather

sailwx.info

Track history (hours):
 
Tides and Currents Weather Stations Pressure Air Temp Water Temp Dewpoint Dewpoint Depression Visibility Wind Speed Wind Dir Waves Ship Positions

Statendam

Operator: Holland America Line

Last reported at 2014-Aug-01 23:33 UTC. Time now 2014-Aug-02 00:25 UTC.
Position N 58°37' W 136°06'.

Type: Passenger vessel. MMSI: 244078000.

Date/timePositionNaut miles runAvg speedWind from/ knotsBaromVisibWave heightAir tempDewpointWater temp
2014-Aug-01 23:33N 58°37' W 136°06'1716.4
2014-Aug-01 22:33N 58°49' W 136°29'7 1.2
2014-Aug-01 16:33N 58°44' W 136°17'1514.7
2014-Aug-01 15:34N 58°31' W 136°04'1110.9
2014-Aug-01 14:33N 58°21' W 135°57'815.0
2014-Aug-01 14:00N 58°18' W 135°42'3 7.3 300 / 81025.0 0.0 12.012.012.0
2014-Aug-01 13:33N 58°16' W 135°37'1111.1
2014-Aug-01 12:33N 58°12' W 135°17'30 8.5
2014-Aug-01 09:00N 58°42' W 135°06'14 0.6 300 / 81025.010.8 14.011.212.0
2014-Jul-31 09:00N 58°30' W 134°54'209 6.3 060 / 71022.010.8 0.512.010.111.0
2014-Jul-30 00:00N 55°24' W 132°00'61 4.5 170 / 211021.010.8 0.515.514.612.0
2014-Jul-29 10:17N 54°29' W 131°15'1215.9
2014-Jul-29 09:33N 54°18' W 131°06'12813.4
2014-Jul-29 00:00N 52°24' W 129°30'6113.1 140 / 171020.5 5.4 1.517.517.513.0
2014-Jul-28 19:22N 51°35' W 128°31'1313.8
2014-Jul-28 18:25N 51°23' W 128°24'1213.1
2014-Jul-28 17:31N 51°13' W 128°14'1313.8
2014-Jul-28 16:33N 51°05' W 127°57'1211.3
2014-Jul-28 15:32N 50°57' W 127°44'1313.0
2014-Jul-28 14:33N 50°50' W 127°27'1514.9
2014-Jul-28 13:33N 50°44' W 127°05'1119.4
2014-Jul-28 13:00N 50°36' W 126°54'612.4 310 / 21023.0 0.0 12.012.0 9.0
2014-Jul-28 12:33N 50°37' W 126°45'1813.8
2014-Jul-28 11:14N 50°30' W 126°19'1415.1
2014-Jul-28 10:19N 50°26' W 125°59'2413.6
2014-Jul-28 08:32N 50°16' W 125°24'1413.3
2014-Jul-28 07:31N 50°03' W 125°15'1515.2
2014-Jul-28 06:33N 49°52' W 125°00'1616.2
2014-Jul-28 05:33N 49°41' W 124°43'1414.2
2014-Jul-28 04:33N 49°30' W 124°29'1212.3
2014-Jul-28 03:33N 49°24' W 124°12'1212.3
2014-Jul-28 02:33N 49°22' W 123°53'1212.1
2014-Jul-28 01:33N 49°20' W 123°35'4 6.8
2014-Jul-28 01:00N 49°18' W 123°30'920.7 300 / 181019.010.8 2.022.018.016.0
2014-Jul-28 00:33N 49°19' W 123°16'7 6.4
2014-Jul-27 23:32N 49°17' W 123°07'0 0.0
2014-Jul-27 22:32N 49°17' W 123°07'0 0.0
2014-Jul-27 21:32N 49°17' W 123°07'0 0.0
2014-Jul-27 20:32N 49°17' W 123°07'0 0.0
2014-Jul-27 19:32N 49°17' W 123°07'0 0.0
2014-Jul-27 18:32N 49°17' W 123°07'0 0.0
2014-Jul-27 17:32N 49°17' W 123°07'0 0.0
2014-Jul-27 16:29N 49°17' W 123°07'0 0.0
2014-Jul-27 15:32N 49°17' W 123°07'0 0.1
2014-Jul-27 14:33N 49°17' W 123°07'3 3.2
2014-Jul-27 13:34N 49°19' W 123°11'1817.6
2014-Jul-27 12:34N 49°19' W 123°38'711.7
2014-Jul-27 12:00N 49°18' W 123°48'1329.1 290 / 41023.010.8 0.517.217.213.0
2014-Jul-27 11:34N 49°22' W 124°06'1818.4
2014-Jul-27 10:34N 49°31' W 124°31'2019.5
2014-Jul-27 09:33N 49°45' W 124°51'1918.6
2014-Jul-27 08:33N 49°59' W 125°11'1313.1
2014-Jul-27 07:33N 50°10' W 125°22'3510.2
2014-Jul-27 04:10N 50°28' W 126°08'1212.7
2014-Jul-27 03:13N 50°30' W 126°27'812.6
2014-Jul-27 02:33N 50°32' W 126°39'1413.6
2014-Jul-27 01:33N 50°41' W 126°55'1615.7
2014-Jul-27 00:33N 50°47' W 127°17'4 7.4
2014-Jul-27 00:00N 50°48' W 127°24'1126.2 120 / 81023.010.8 18.016.3 9.0
2014-Jul-26 23:33N 50°55' W 127°39'1313.5
2014-Jul-26 22:33N 51°03' W 127°55'1616.3
2014-Jul-26 21:33N 51°13' W 128°16'11715.4
2014-Jul-26 14:00N 52°48' W 130°06'291 9.4 180 / 241017.6 5.4 2.013.013.012.0
2014-Jul-25 07:00N 57°06' W 134°00'134 4.5 170 / 141015.0 5.4 0.512.012.0 9.0
2014-Jul-24 01:00N 59°12' W 135°24'66 5.5 170 / 121015.0 17.512.1 9.0
2014-Jul-23 13:00N 58°06' W 135°12'4 0.7 170 / 211017.0 5.4 0.514.814.812.0
2014-Jul-23 06:24N 58°09' W 135°17'410.4
2014-Jul-23 06:00N 58°06' W 135°12'1328.9 310 / 141018.010.8 15.0 11.0
2014-Jul-23 05:33N 58°14' W 135°31'1010.2
2014-Jul-23 04:33N 58°18' W 135°48'1110.9
2014-Jul-23 03:33N 58°27' W 136°01'1312.8
2014-Jul-23 02:33N 58°39' W 136°08'1616.1
2014-Jul-23 01:33N 58°50' W 136°32'  
Track history (hours):
 
Tides and Currents Weather Stations Pressure Air Temp Water Temp Dewpoint Dewpoint Depression Visibility Wind Speed Wind Dir Waves Ship Positions

Statendam

Operator: Holland America Line

Last reported at 2014-Aug-01 23:33 UTC. Time now 2014-Aug-02 00:25 UTC.
Position N 58°37' W 136°06'.

Type: Passenger vessel. MMSI: 244078000.

Date/timePositionNaut miles runAvg speedWind from/ knotsBaromVisibWave heightAir tempDewpointWater temp
2014-Aug-01 23:33N 58°37' W 136°06'1716.4
2014-Aug-01 22:33N 58°49' W 136°29'7 1.2
2014-Aug-01 16:33N 58°44' W 136°17'1514.7
2014-Aug-01 15:34N 58°31' W 136°04'1110.9
2014-Aug-01 14:33N 58°21' W 135°57'815.0
2014-Aug-01 14:00N 58°18' W 135°42'3 7.3 300 / 81025.0 0.0 12.012.012.0
2014-Aug-01 13:33N 58°16' W 135°37'1111.1
2014-Aug-01 12:33N 58°12' W 135°17'30 8.5
2014-Aug-01 09:00N 58°42' W 135°06'14 0.6 300 / 81025.010.8 14.011.212.0
2014-Jul-31 09:00N 58°30' W 134°54'209 6.3 060 / 71022.010.8 0.512.010.111.0
2014-Jul-30 00:00N 55°24' W 132°00'61 4.5 170 / 211021.010.8 0.515.514.612.0
2014-Jul-29 10:17N 54°29' W 131°15'1215.9
2014-Jul-29 09:33N 54°18' W 131°06'12813.4
2014-Jul-29 00:00N 52°24' W 129°30'6113.1 140 / 171020.5 5.4 1.517.517.513.0
2014-Jul-28 19:22N 51°35' W 128°31'1313.8
2014-Jul-28 18:25N 51°23' W 128°24'1213.1
2014-Jul-28 17:31N 51°13' W 128°14'1313.8
2014-Jul-28 16:33N 51°05' W 127°57'1211.3
2014-Jul-28 15:32N 50°57' W 127°44'1313.0
2014-Jul-28 14:33N 50°50' W 127°27'1514.9
2014-Jul-28 13:33N 50°44' W 127°05'1119.4
2014-Jul-28 13:00N 50°36' W 126°54'612.4 310 / 21023.0 0.0 12.012.0 9.0
2014-Jul-28 12:33N 50°37' W 126°45'1813.8
2014-Jul-28 11:14N 50°30' W 126°19'1415.1
2014-Jul-28 10:19N 50°26' W 125°59'2413.6
2014-Jul-28 08:32N 50°16' W 125°24'1413.3
2014-Jul-28 07:31N 50°03' W 125°15'1515.2
2014-Jul-28 06:33N 49°52' W 125°00'1616.2
2014-Jul-28 05:33N 49°41' W 124°43'1414.2
2014-Jul-28 04:33N 49°30' W 124°29'1212.3
2014-Jul-28 03:33N 49°24' W 124°12'1212.3
2014-Jul-28 02:33N 49°22' W 123°53'1212.1
2014-Jul-28 01:33N 49°20' W 123°35'4 6.8
2014-Jul-28 01:00N 49°18' W 123°30'920.7 300 / 181019.010.8 2.022.018.016.0
2014-Jul-28 00:33N 49°19' W 123°16'7 6.4
2014-Jul-27 23:32N 49°17' W 123°07'0 0.0
2014-Jul-27 22:32N 49°17' W 123°07'0 0.0
2014-Jul-27 21:32N 49°17' W 123°07'0 0.0
2014-Jul-27 20:32N 49°17' W 123°07'0 0.0
2014-Jul-27 19:32N 49°17' W 123°07'0 0.0
2014-Jul-27 18:32N 49°17' W 123°07'0 0.0
2014-Jul-27 17:32N 49°17' W 123°07'0 0.0
2014-Jul-27 16:29N 49°17' W 123°07'0 0.0
2014-Jul-27 15:32N 49°17' W 123°07'0 0.1
2014-Jul-27 14:33N 49°17' W 123°07'3 3.2
2014-Jul-27 13:34N 49°19' W 123°11'1817.6
2014-Jul-27 12:34N 49°19' W 123°38'711.7
2014-Jul-27 12:00N 49°18' W 123°48'1329.1 290 / 41023.010.8 0.517.217.213.0
2014-Jul-27 11:34N 49°22' W 124°06'1818.4
2014-Jul-27 10:34N 49°31' W 124°31'2019.5
2014-Jul-27 09:33N 49°45' W 124°51'1918.6
2014-Jul-27 08:33N 49°59' W 125°11'1313.1
2014-Jul-27 07:33N 50°10' W 125°22'3510.2
2014-Jul-27 04:10N 50°28' W 126°08'1212.7
2014-Jul-27 03:13N 50°30' W 126°27'812.6
2014-Jul-27 02:33N 50°32' W 126°39'1413.6
2014-Jul-27 01:33N 50°41' W 126°55'1615.7
2014-Jul-27 00:33N 50°47' W 127°17'4 7.4
2014-Jul-27 00:00N 50°48' W 127°24'1126.2 120 / 81023.010.8 18.016.3 9.0
2014-Jul-26 23:33N 50°55' W 127°39'1313.5
2014-Jul-26 22:33N 51°03' W 127°55'1616.3
2014-Jul-26 21:33N 51°13' W 128°16'11715.4
2014-Jul-26 14:00N 52°48' W 130°06'291 9.4 180 / 241017.6 5.4 2.013.013.012.0
2014-Jul-25 07:00N 57°06' W 134°00'134 4.5 170 / 141015.0 5.4 0.512.012.0 9.0
2014-Jul-24 01:00N 59°12' W 135°24'66 5.5 170 / 121015.0 17.512.1 9.0
2014-Jul-23 13:00N 58°06' W 135°12'4 0.7 170 / 211017.0 5.4 0.514.814.812.0
2014-Jul-23 06:24N 58°09' W 135°17'410.4
2014-Jul-23 06:00N 58°06' W 135°12'1328.9 310 / 141018.010.8 15.0 11.0
2014-Jul-23 05:33N 58°14' W 135°31'1010.2
2014-Jul-23 04:33N 58°18' W 135°48'1110.9
2014-Jul-23 03:33N 58°27' W 136°01'1312.8
2014-Jul-23 02:33N 58°39' W 136°08'1616.1
2014-Jul-23 01:33N 58°50' W 136°32'  

Dump ship's entire track history